sensor_id;sensor_type;location;lat;lon;timestamp;pressure;altitude;pressure_sealevel;temperature;humidity
16525;BME280;8375;33.594;-117.718;2023-05-02T00:01:13;99783.38;;;17.54;59.18
16525;BME280;8375;33.594;-117.718;2023-05-02T00:03:42;99787.22;;;17.43;57.82
16525;BME280;8375;33.594;-117.718;2023-05-02T00:06:12;99787.69;;;17.47;58.07
16525;BME280;8375;33.594;-117.718;2023-05-02T00:08:41;99803.19;;;17.33;58.04
16525;BME280;8375;33.594;-117.718;2023-05-02T00:11:10;99792.94;;;17.15;59.23
16525;BME280;8375;33.594;-117.718;2023-05-02T00:13:39;99795.44;;;17.08;59.15
16525;BME280;8375;33.594;-117.718;2023-05-02T00:16:09;99790.63;;;16.64;61.17
16525;BME280;8375;33.594;-117.718;2023-05-02T00:18:38;99786.38;;;16.63;60.75
16525;BME280;8375;33.594;-117.718;2023-05-02T00:21:07;99792.91;;;16.67;61.30
16525;BME280;8375;33.594;-117.718;2023-05-02T00:23:37;99791.13;;;16.51;61.51
16525;BME280;8375;33.594;-117.718;2023-05-02T00:26:08;99790.03;;;16.37;61.38
16525;BME280;8375;33.594;-117.718;2023-05-02T00:28:37;99792.97;;;16.42;61.55
16525;BME280;8375;33.594;-117.718;2023-05-02T00:31:05;99780.56;;;16.27;62.00
16525;BME280;8375;33.594;-117.718;2023-05-02T00:33:34;99784.25;;;16.50;62.50
16525;BME280;8375;33.594;-117.718;2023-05-02T00:36:03;99768.72;;;16.48;62.15
16525;BME280;8375;33.594;-117.718;2023-05-02T00:38:32;99779.03;;;16.50;62.66
16525;BME280;8375;33.594;-117.718;2023-05-02T00:41:03;99775.13;;;16.37;62.27
16525;BME280;8375;33.594;-117.718;2023-05-02T00:43:31;99779.41;;;15.89;61.45
16525;BME280;8375;33.594;-117.718;2023-05-02T00:46:00;99780.88;;;16.08;62.82
16525;BME280;8375;33.594;-117.718;2023-05-02T00:48:29;99784.16;;;16.10;60.95
16525;BME280;8375;33.594;-117.718;2023-05-02T00:50:58;99775.78;;;16.23;61.51
16525;BME280;8375;33.594;-117.718;2023-05-02T00:53:26;99788.19;;;15.79;62.41
16525;BME280;8375;33.594;-117.718;2023-05-02T00:55:57;99789.81;;;15.13;63.90
16525;BME280;8375;33.594;-117.718;2023-05-02T00:58:27;99783.03;;;15.36;65.29
16525;BME280;8375;33.594;-117.718;2023-05-02T01:01:10;99782.13;;;15.70;63.90
16525;BME280;8375;33.594;-117.718;2023-05-02T01:03:54;99786.34;;;15.55;61.28
16525;BME280;8375;33.594;-117.718;2023-05-02T01:06:38;99778.16;;;15.42;63.16
16525;BME280;8375;33.594;-117.718;2023-05-02T01:09:25;99781.41;;;15.35;62.01
16525;BME280;8375;33.594;-117.718;2023-05-02T01:12:00;99776.66;;;15.31;63.57
16525;BME280;8375;33.594;-117.718;2023-05-02T01:14:35;99774.88;;;15.39;63.72
16525;BME280;8375;33.594;-117.718;2023-05-02T01:17:10;99779.06;;;15.16;63.26
16525;BME280;8375;33.594;-117.718;2023-05-02T01:19:42;99782.75;;;14.96;63.34
16525;BME280;8375;33.594;-117.718;2023-05-02T01:22:12;99780.25;;;14.87;63.12
16525;BME280;8375;33.594;-117.718;2023-05-02T01:24:50;99781.03;;;14.79;62.92
16525;BME280;8375;33.594;-117.718;2023-05-02T01:27:30;99789.09;;;14.15;65.54
16525;BME280;8375;33.594;-117.718;2023-05-02T01:30:05;99790.50;;;14.09;67.39
16525;BME280;8375;33.594;-117.718;2023-05-02T01:32:36;99783.41;;;14.19;67.27
16525;BME280;8375;33.594;-117.718;2023-05-02T01:35:08;99781.41;;;14.13;66.84
16525;BME280;8375;33.594;-117.718;2023-05-02T01:37:39;99785.34;;;14.17;66.56
16525;BME280;8375;33.594;-117.718;2023-05-02T01:40:09;99775.44;;;14.03;67.79
16525;BME280;8375;33.594;-117.718;2023-05-02T01:42:39;99779.56;;;14.05;69.24
16525;BME280;8375;33.594;-117.718;2023-05-02T01:45:12;99783.16;;;14.04;69.43
16525;BME280;8375;33.594;-117.718;2023-05-02T01:47:43;99786.03;;;13.83;69.94
16525;BME280;8375;33.594;-117.718;2023-05-02T01:50:15;99781.66;;;13.66;71.82
16525;BME280;8375;33.594;-117.718;2023-05-02T01:52:46;99784.25;;;13.47;71.38
16525;BME280;8375;33.594;-117.718;2023-05-02T01:55:17;99771.53;;;13.34;71.96
16525;BME280;8375;33.594;-117.718;2023-05-02T01:57:47;99771.97;;;13.30;73.01
16525;BME280;8375;33.594;-117.718;2023-05-02T02:00:21;99771.81;;;13.31;72.36
16525;BME280;8375;33.594;-117.718;2023-05-02T02:02:50;99779.25;;;13.26;72.51
16525;BME280;8375;33.594;-117.718;2023-05-02T02:05:21;99769.13;;;13.23;72.56
16525;BME280;8375;33.594;-117.718;2023-05-02T02:07:51;99766.41;;;13.15;71.51
16525;BME280;8375;33.594;-117.718;2023-05-02T02:10:21;99766.41;;;13.15;71.79
16525;BME280;8375;33.594;-117.718;2023-05-02T02:12:53;99770.00;;;13.14;70.43
16525;BME280;8375;33.594;-117.718;2023-05-02T02:15:29;99762.22;;;13.04;68.92
16525;BME280;8375;33.594;-117.718;2023-05-02T02:18:03;99752.47;;;13.06;68.44
16525;BME280;8375;33.594;-117.718;2023-05-02T02:20:33;99760.81;;;13.10;68.67
16525;BME280;8375;33.594;-117.718;2023-05-02T02:23:05;99763.34;;;13.01;69.50
16525;BME280;8375;33.594;-117.718;2023-05-02T02:25:35;99765.16;;;12.91;69.72
16525;BME280;8375;33.594;-117.718;2023-05-02T02:28:06;99766.81;;;12.92;70.20
16525;BME280;8375;33.594;-117.718;2023-05-02T02:30:37;99761.16;;;12.97;68.68
16525;BME280;8375;33.594;-117.718;2023-05-02T02:33:06;99772.34;;;13.07;68.35
16525;BME280;8375;33.594;-117.718;2023-05-02T02:35:39;99768.66;;;13.10;68.14
16525;BME280;8375;33.594;-117.718;2023-05-02T02:38:13;99776.06;;;13.04;67.77
16525;BME280;8375;33.594;-117.718;2023-05-02T02:40:48;99777.47;;;12.99;67.99
16525;BME280;8375;33.594;-117.718;2023-05-02T02:43:26;99785.16;;;13.00;68.20
16525;BME280;8375;33.594;-117.718;2023-05-02T02:46:11;99785.16;;;12.90;68.79
16525;BME280;8375;33.594;-117.718;2023-05-02T02:48:46;99793.16;;;12.89;69.39
16525;BME280;8375;33.594;-117.718;2023-05-02T02:51:24;99795.38;;;12.74;69.97
16525;BME280;8375;33.594;-117.718;2023-05-02T02:54:00;99794.56;;;12.73;70.63
16525;BME280;8375;33.594;-117.718;2023-05-02T02:56:38;99798.13;;;12.72;70.99
16525;BME280;8375;33.594;-117.718;2023-05-02T02:59:13;99803.63;;;12.69;71.51
16525;BME280;8375;33.594;-117.718;2023-05-02T03:01:51;99794.97;;;12.69;71.83
16525;BME280;8375;33.594;-117.718;2023-05-02T03:04:25;99796.91;;;12.67;72.08
16525;BME280;8375;33.594;-117.718;2023-05-02T03:06:55;99804.72;;;12.67;72.13
16525;BME280;8375;33.594;-117.718;2023-05-02T03:09:23;99805.69;;;12.66;72.78
16525;BME280;8375;33.594;-117.718;2023-05-02T03:11:55;99805.44;;;12.59;72.85
16525;BME280;8375;33.594;-117.718;2023-05-02T03:14:24;99807.75;;;12.62;73.51
16525;BME280;8375;33.594;-117.718;2023-05-02T03:16:55;99813.09;;;12.60;74.34
16525;BME280;8375;33.594;-117.718;2023-05-02T03:19:25;99823.94;;;12.56;75.00
16525;BME280;8375;33.594;-117.718;2023-05-02T03:21:54;99819.97;;;12.52;75.29
16525;BME280;8375;33.594;-117.718;2023-05-02T03:24:23;99817.38;;;12.52;75.40
16525;BME280;8375;33.594;-117.718;2023-05-02T03:26:54;99830.09;;;12.55;75.74
16525;BME280;8375;33.594;-117.718;2023-05-02T03:29:25;99824.91;;;12.55;75.65
16525;BME280;8375;33.594;-117.718;2023-05-02T03:31:56;99829.16;;;12.56;76.19
16525;BME280;8375;33.594;-117.718;2023-05-02T03:34:25;99832.03;;;12.53;76.36
16525;BME280;8375;33.594;-117.718;2023-05-02T03:36:54;99829.72;;;12.50;76.24
16525;BME280;8375;33.594;-117.718;2023-05-02T03:39:23;99836.84;;;12.47;76.58
16525;BME280;8375;33.594;-117.718;2023-05-02T03:41:52;99832.72;;;12.45;76.09
16525;BME280;8375;33.594;-117.718;2023-05-02T03:44:21;99838.19;;;12.42;76.22
16525;BME280;8375;33.594;-117.718;2023-05-02T03:46:49;99840.94;;;12.40;76.45
16525;BME280;8375;33.594;-117.718;2023-05-02T03:49:20;99840.94;;;12.40;76.91
16525;BME280;8375;33.594;-117.718;2023-05-02T03:51:48;99841.75;;;12.41;77.17
16525;BME280;8375;33.594;-117.718;2023-05-02T03:54:17;99851.91;;;12.44;77.95
16525;BME280;8375;33.594;-117.718;2023-05-02T03:56:47;99854.38;;;12.45;77.51
16525;BME280;8375;33.594;-117.718;2023-05-02T03:59:15;99852.47;;;12.47;78.22
16525;BME280;8375;33.594;-117.718;2023-05-02T04:01:47;99849.56;;;12.51;77.67
16525;BME280;8375;33.594;-117.718;2023-05-02T04:04:20;99853.81;;;12.52;77.64
16525;BME280;8375;33.594;-117.718;2023-05-02T04:06:49;99851.91;;;12.54;77.22
16525;BME280;8375;33.594;-117.718;2023-05-02T04:09:17;99855.06;;;12.47;77.75
16525;BME280;8375;33.594;-117.718;2023-05-02T04:11:51;99865.19;;;12.41;78.70
16525;BME280;8375;33.594;-117.718;2023-05-02T04:14:20;99858.63;;;12.37;78.99
16525;BME280;8375;33.594;-117.718;2023-05-02T04:16:49;99865.91;;;12.33;79.61
16525;BME280;8375;33.594;-117.718;2023-05-02T04:19:21;99866.84;;;12.22;80.45
16525;BME280;8375;33.594;-117.718;2023-05-02T04:21:50;99868.63;;;12.22;80.92
16525;BME280;8375;33.594;-117.718;2023-05-02T04:24:19;99871.50;;;12.18;81.68
16525;BME280;8375;33.594;-117.718;2023-05-02T04:26:47;99881.66;;;12.22;81.79
16525;BME280;8375;33.594;-117.718;2023-05-02T04:29:16;99879.03;;;12.22;81.99
16525;BME280;8375;33.594;-117.718;2023-05-02T04:31:45;99877.13;;;12.24;82.33
16525;BME280;8375;33.594;-117.718;2023-05-02T04:34:14;99887.25;;;12.27;81.85
16525;BME280;8375;33.594;-117.718;2023-05-02T04:36:46;99883.13;;;12.24;82.47
16525;BME280;8375;33.594;-117.718;2023-05-02T04:39:15;99887.53;;;12.24;82.45
16525;BME280;8375;33.594;-117.718;2023-05-02T04:41:44;99891.63;;;12.26;83.01
16525;BME280;8375;33.594;-117.718;2023-05-02T04:44:13;99891.63;;;12.26;82.99
16525;BME280;8375;33.594;-117.718;2023-05-02T04:46:43;99893.97;;;12.29;83.25
16525;BME280;8375;33.594;-117.718;2023-05-02T04:49:11;99893.00;;;12.30;83.22
16525;BME280;8375;33.594;-117.718;2023-05-02T04:51:40;99890.41;;;12.30;83.88
16525;BME280;8375;33.594;-117.718;2023-05-02T04:54:11;99893.28;;;12.37;84.40
16525;BME280;8375;33.594;-117.718;2023-05-02T04:56:39;99892.44;;;12.37;83.97
16525;BME280;8375;33.594;-117.718;2023-05-02T04:59:08;99901.78;;;12.39;84.25
16525;BME280;8375;33.594;-117.718;2023-05-02T05:01:37;99907.25;;;12.36;84.51
16525;BME280;8375;33.594;-117.718;2023-05-02T05:04:06;99902.47;;;12.41;84.48
16525;BME280;8375;33.594;-117.718;2023-05-02T05:06:34;99901.78;;;12.39;84.68
16525;BME280;8375;33.594;-117.718;2023-05-02T05:09:03;99895.34;;;12.43;84.85
16525;BME280;8375;33.594;-117.718;2023-05-02T05:11:34;99897.09;;;12.43;85.11
16525;BME280;8375;33.594;-117.718;2023-05-02T05:14:04;99894.66;;;12.41;85.17
16525;BME280;8375;33.594;-117.718;2023-05-02T05:16:33;99892.75;;;12.43;85.52
16525;BME280;8375;33.594;-117.718;2023-05-02T05:19:03;99895.75;;;12.49;85.89
16525;BME280;8375;33.594;-117.718;2023-05-02T05:21:32;99889.84;;;12.56;85.51
16525;BME280;8375;33.594;-117.718;2023-05-02T05:24:00;99895.59;;;12.60;85.20
16525;BME280;8375;33.594;-117.718;2023-05-02T05:26:29;99896.28;;;12.62;85.22
16525;BME280;8375;33.594;-117.718;2023-05-02T05:29:00;99895.19;;;12.65;85.26
16525;BME280;8375;33.594;-117.718;2023-05-02T05:31:29;99891.59;;;12.66;84.84
16525;BME280;8375;33.594;-117.718;2023-05-02T05:33:58;99897.38;;;12.69;85.34
16525;BME280;8375;33.594;-117.718;2023-05-02T05:36:29;99897.38;;;12.69;84.97
16525;BME280;8375;33.594;-117.718;2023-05-02T05:38:58;99892.16;;;12.69;84.91
16525;BME280;8375;33.594;-117.718;2023-05-02T05:41:27;99901.63;;;12.70;85.01
16525;BME280;8375;33.594;-117.718;2023-05-02T05:43:56;99899.03;;;12.70;84.75
16525;BME280;8375;33.594;-117.718;2023-05-02T05:46:27;99902.59;;;12.69;84.26
16525;BME280;8375;33.594;-117.718;2023-05-02T05:48:56;99897.38;;;12.69;84.63
16525;BME280;8375;33.594;-117.718;2023-05-02T05:51:26;99908.59;;;12.70;84.91
16525;BME280;8375;33.594;-117.718;2023-05-02T05:53:55;99914.22;;;12.75;85.29
16525;BME280;8375;33.594;-117.718;2023-05-02T05:56:24;99910.94;;;12.73;84.95
16525;BME280;8375;33.594;-117.718;2023-05-02T05:58:54;99914.09;;;12.76;84.44
16525;BME280;8375;33.594;-117.718;2023-05-02T06:01:23;99912.28;;;12.77;84.29
16525;BME280;8375;33.594;-117.718;2023-05-02T06:03:55;99918.34;;;12.77;84.37
16525;BME280;8375;33.594;-117.718;2023-05-02T06:06:25;99916.00;;;12.74;84.01
16525;BME280;8375;33.594;-117.718;2023-05-02T06:08:55;99916.56;;;12.68;84.36
16525;BME280;8375;33.594;-117.718;2023-05-02T06:11:25;99917.94;;;12.62;85.04
16525;BME280;8375;33.594;-117.718;2023-05-02T06:13:54;99918.59;;;12.65;85.76
16525;BME280;8375;33.594;-117.718;2023-05-02T06:16:24;99918.50;;;12.66;85.32
16525;BME280;8375;33.594;-117.718;2023-05-02T06:18:54;99926.97;;;12.68;85.74
16525;BME280;8375;33.594;-117.718;2023-05-02T06:21:23;99927.50;;;12.72;86.02
16525;BME280;8375;33.594;-117.718;2023-05-02T06:23:52;99930.69;;;12.75;85.89
16525;BME280;8375;33.594;-117.718;2023-05-02T06:26:21;99928.88;;;12.76;85.64
16525;BME280;8375;33.594;-117.718;2023-05-02T06:28:49;99927.50;;;12.82;85.68
16525;BME280;8375;33.594;-117.718;2023-05-02T06:31:18;99937.09;;;12.81;85.37
16525;BME280;8375;33.594;-117.718;2023-05-02T06:33:47;99930.13;;;12.82;84.66
16525;BME280;8375;33.594;-117.718;2023-05-02T06:36:17;99933.53;;;12.82;84.82
16525;BME280;8375;33.594;-117.718;2023-05-02T06:38:46;99929.56;;;12.78;84.90
16525;BME280;8375;33.594;-117.718;2023-05-02T06:41:15;99934.94;;;12.76;85.42
16525;BME280;8375;33.594;-117.718;2023-05-02T06:43:44;99925.47;;;12.75;84.81
16525;BME280;8375;33.594;-117.718;2023-05-02T06:46:13;99935.19;;;12.73;85.08
16525;BME280;8375;33.594;-117.718;2023-05-02T06:48:41;99925.59;;;12.74;85.73
16525;BME280;8375;33.594;-117.718;2023-05-02T06:51:10;99927.66;;;12.70;85.06
16525;BME280;8375;33.594;-117.718;2023-05-02T06:53:41;99926.84;;;12.60;85.13
16525;BME280;8375;33.594;-117.718;2023-05-02T06:56:09;99936.69;;;12.56;85.89
16525;BME280;8375;33.594;-117.718;2023-05-02T06:58:38;99936.31;;;12.61;86.19
16525;BME280;8375;33.594;-117.718;2023-05-02T07:01:07;99939.72;;;12.61;86.38
16525;BME280;8375;33.594;-117.718;2023-05-02T07:03:35;99938.75;;;12.62;86.22
16525;BME280;8375;33.594;-117.718;2023-05-02T07:06:04;99945.06;;;12.70;85.69
16525;BME280;8375;33.594;-117.718;2023-05-02T07:08:33;99946.03;;;12.69;85.43
16525;BME280;8375;33.594;-117.718;2023-05-02T07:11:03;99946.59;;;12.72;85.74
16525;BME280;8375;33.594;-117.718;2023-05-02T07:13:32;99948.34;;;12.72;85.14
16525;BME280;8375;33.594;-117.718;2023-05-02T07:16:01;99951.09;;;12.70;84.75
16525;BME280;8375;33.594;-117.718;2023-05-02T07:18:29;99950.69;;;12.65;85.65
16525;BME280;8375;33.594;-117.718;2023-05-02T07:20:58;99948.09;;;12.65;85.57
16525;BME280;8375;33.594;-117.718;2023-05-02T07:23:27;99945.91;;;12.70;86.40
16525;BME280;8375;33.594;-117.718;2023-05-02T07:25:56;99946.31;;;12.75;86.40
16525;BME280;8375;33.594;-117.718;2023-05-02T07:28:26;99952.19;;;12.77;86.62
16525;BME280;8375;33.594;-117.718;2023-05-02T07:30:55;99948.63;;;12.79;87.09
16525;BME280;8375;33.594;-117.718;2023-05-02T07:33:24;99944.22;;;12.79;86.99
16525;BME280;8375;33.594;-117.718;2023-05-02T07:35:53;99939.69;;;12.81;87.30
16525;BME280;8375;33.594;-117.718;2023-05-02T07:38:23;99941.50;;;12.81;86.51
16525;BME280;8375;33.594;-117.718;2023-05-02T07:40:52;99937.78;;;12.83;87.54
16525;BME280;8375;33.594;-117.718;2023-05-02T07:43:21;99941.91;;;12.86;87.80
16525;BME280;8375;33.594;-117.718;2023-05-02T07:45:52;99946.16;;;12.87;87.97
16525;BME280;8375;33.594;-117.718;2023-05-02T07:48:20;99947.25;;;12.84;88.06
16525;BME280;8375;33.594;-117.718;2023-05-02T07:50:49;99945.59;;;12.83;88.17
16525;BME280;8375;33.594;-117.718;2023-05-02T07:53:18;99937.78;;;12.83;88.10
16525;BME280;8375;33.594;-117.718;2023-05-02T07:55:46;99946.84;;;12.89;89.29
16525;BME280;8375;33.594;-117.718;2023-05-02T07:58:15;99940.66;;;12.90;89.33
16525;BME280;8375;33.594;-117.718;2023-05-02T08:00:44;99948.88;;;12.85;88.81
16525;BME280;8375;33.594;-117.718;2023-05-02T08:03:14;99937.78;;;12.83;89.30
16525;BME280;8375;33.594;-117.718;2023-05-02T08:05:43;99938.47;;;12.85;89.29
16525;BME280;8375;33.594;-117.718;2023-05-02T08:08:11;99938.75;;;12.82;89.17
16525;BME280;8375;33.594;-117.718;2023-05-02T08:10:40;99942.72;;;12.86;89.56
16525;BME280;8375;33.594;-117.718;2023-05-02T08:13:09;99930.66;;;12.85;89.03
16525;BME280;8375;33.594;-117.718;2023-05-02T08:15:37;99940.25;;;12.85;89.44
16525;BME280;8375;33.594;-117.718;2023-05-02T08:18:06;99942.19;;;12.83;89.53
16525;BME280;8375;33.594;-117.718;2023-05-02T08:20:37;99934.22;;;12.84;89.58
16525;BME280;8375;33.594;-117.718;2023-05-02T08:23:06;99934.91;;;12.86;89.24
16525;BME280;8375;33.594;-117.718;2023-05-02T08:25:34;99935.06;;;12.85;89.09
16525;BME280;8375;33.594;-117.718;2023-05-02T08:28:03;99932.72;;;12.82;89.04
16525;BME280;8375;33.594;-117.718;2023-05-02T08:30:32;99938.75;;;12.82;89.36
16525;BME280;8375;33.594;-117.718;2023-05-02T08:33:00;99934.78;;;12.78;88.80
16525;BME280;8375;33.594;-117.718;2023-05-02T08:35:29;99937.53;;;12.76;89.13
16525;BME280;8375;33.594;-117.718;2023-05-02T08:37:59;99936.28;;;12.81;89.61
16525;BME280;8375;33.594;-117.718;2023-05-02T08:40:35;99930.81;;;12.84;90.17
16525;BME280;8375;33.594;-117.718;2023-05-02T08:43:04;99930.53;;;12.77;88.79
16525;BME280;8375;33.594;-117.718;2023-05-02T08:45:37;99927.66;;;12.70;89.09
16525;BME280;8375;33.594;-117.718;2023-05-02T08:48:08;99933.16;;;12.67;89.10
16525;BME280;8375;33.594;-117.718;2023-05-02T08:50:38;99928.91;;;12.66;88.93
16525;BME280;8375;33.594;-117.718;2023-05-02T08:53:09;99926.31;;;12.66;89.96
16525;BME280;8375;33.594;-117.718;2023-05-02T08:55:40;99924.78;;;12.64;90.49
16525;BME280;8375;33.594;-117.718;2023-05-02T08:58:09;99915.75;;;12.58;90.17
16525;BME280;8375;33.594;-117.718;2023-05-02T09:00:39;99923.56;;;12.58;90.18
16525;BME280;8375;33.594;-117.718;2023-05-02T09:03:19;99922.19;;;12.54;89.82
16525;BME280;8375;33.594;-117.718;2023-05-02T09:05:52;99918.06;;;12.51;90.58
16525;BME280;8375;33.594;-117.718;2023-05-02T09:08:25;99920.25;;;12.46;90.48
16525;BME280;8375;33.594;-117.718;2023-05-02T09:10:54;99922.88;;;12.46;90.87
16525;BME280;8375;33.594;-117.718;2023-05-02T09:13:33;99917.66;;;12.46;91.34
16525;BME280;8375;33.594;-117.718;2023-05-02T09:16:04;99917.38;;;12.49;92.08
16525;BME280;8375;33.594;-117.718;2023-05-02T09:18:34;99910.25;;;12.51;91.84
16525;BME280;8375;33.594;-117.718;2023-05-02T09:21:05;99916.31;;;12.52;91.61
16525;BME280;8375;33.594;-117.718;2023-05-02T09:23:38;99919.19;;;12.49;91.80
16525;BME280;8375;33.594;-117.718;2023-05-02T09:26:11;99921.09;;;12.56;93.86
16525;BME280;8375;33.594;-117.718;2023-05-02T09:28:41;99910.66;;;12.56;92.75
16525;BME280;8375;33.594;-117.718;2023-05-02T09:31:12;99909.88;;;12.56;92.80
16525;BME280;8375;33.594;-117.718;2023-05-02T09:33:41;99910.53;;;12.58;93.31
16525;BME280;8375;33.594;-117.718;2023-05-02T09:36:11;99916.56;;;12.58;94.22
16525;BME280;8375;33.594;-117.718;2023-05-02T09:38:44;99918.63;;;12.55;94.07
16525;BME280;8375;33.594;-117.718;2023-05-02T09:41:13;99920.56;;;12.53;94.72
16525;BME280;8375;33.594;-117.718;2023-05-02T09:43:43;99922.47;;;12.51;95.48
16525;BME280;8375;33.594;-117.718;2023-05-02T09:46:12;99923.16;;;12.53;94.59
16525;BME280;8375;33.594;-117.718;2023-05-02T09:49:01;99921.91;;;12.47;94.11
16525;BME280;8375;33.594;-117.718;2023-05-02T09:51:30;99919.03;;;12.40;93.27
16525;BME280;8375;33.594;-117.718;2023-05-02T09:54:00;99922.19;;;12.34;93.14
16525;BME280;8375;33.594;-117.718;2023-05-02T09:56:29;99924.38;;;12.29;93.62
16525;BME280;8375;33.594;-117.718;2023-05-02T09:59:11;99925.47;;;12.26;93.89
16525;BME280;8375;33.594;-117.718;2023-05-02T10:01:41;99919.84;;;12.21;93.67
16525;BME280;8375;33.594;-117.718;2023-05-02T10:04:11;99922.44;;;12.21;93.75
16525;BME280;8375;33.594;-117.718;2023-05-02T10:06:42;99933.00;;;12.20;93.28
16525;BME280;8375;33.594;-117.718;2023-05-02T10:09:14;99927.66;;;12.11;93.28
16525;BME280;8375;33.594;-117.718;2023-05-02T10:11:43;99937.22;;;12.11;93.19
16525;BME280;8375;33.594;-117.718;2023-05-02T10:14:14;99931.47;;;12.07;93.44
16525;BME280;8375;33.594;-117.718;2023-05-02T10:16:49;99936.00;;;12.05;93.83
16525;BME280;8375;33.594;-117.718;2023-05-02T10:19:23;99936.41;;;12.10;94.69
16525;BME280;8375;33.594;-117.718;2023-05-02T10:21:55;99928.31;;;12.03;93.51
16525;BME280;8375;33.594;-117.718;2023-05-02T10:24:27;99932.81;;;12.01;93.27
16525;BME280;8375;33.594;-117.718;2023-05-02T10:26:58;99925.66;;;11.94;92.37
16525;BME280;8375;33.594;-117.718;2023-05-02T10:29:28;99927.28;;;11.85;92.49
16525;BME280;8375;33.594;-117.718;2023-05-02T10:31:57;99935.22;;;11.83;92.90
16525;BME280;8375;33.594;-117.718;2023-05-02T10:34:31;99929.75;;;11.86;93.22
16525;BME280;8375;33.594;-117.718;2023-05-02T10:37:00;99937.41;;;11.88;93.90
16525;BME280;8375;33.594;-117.718;2023-05-02T10:39:31;99931.78;;;11.83;93.21
16525;BME280;8375;33.594;-117.718;2023-05-02T10:42:01;99940.97;;;11.87;93.18
16525;BME280;8375;33.594;-117.718;2023-05-02T10:44:34;99938.38;;;11.87;92.04
16525;BME280;8375;33.594;-117.718;2023-05-02T10:47:18;99931.13;;;11.91;92.99
16525;BME280;8375;33.594;-117.718;2023-05-02T10:49:51;99925.66;;;11.94;93.61
16525;BME280;8375;33.594;-117.718;2023-05-02T10:52:30;99928.31;;;12.03;93.73
16525;BME280;8375;33.594;-117.718;2023-05-02T10:55:18;99930.38;;;12.00;91.09
16525;BME280;8375;33.594;-117.718;2023-05-02T10:58:19;99924.28;;;11.99;90.86
16525;BME280;8375;33.594;-117.718;2023-05-02T11:00:49;99921.84;;;11.98;91.73
16525;BME280;8375;33.594;-117.718;2023-05-02T11:06:19;99925.84;;;12.02;91.01
16525;BME280;8375;33.594;-117.718;2023-05-02T11:08:47;99921.84;;;11.98;89.83
16525;BME280;8375;33.594;-117.718;2023-05-02T11:11:40;99928.69;;;11.99;89.76
16525;BME280;8375;33.594;-117.718;2023-05-02T11:14:09;99923.75;;;11.96;89.04
16525;BME280;8375;33.594;-117.718;2023-05-02T11:17:08;99928.81;;;11.87;89.78
16525;BME280;8375;33.594;-117.718;2023-05-02T11:22:51;99931.78;;;11.83;89.41
16525;BME280;8375;33.594;-117.718;2023-05-02T11:25:37;99929.06;;;11.84;90.27
16525;BME280;8375;33.594;-117.718;2023-05-02T11:28:42;99928.91;;;11.86;91.35
16525;BME280;8375;33.594;-117.718;2023-05-02T11:34:42;99934.69;;;11.89;90.57
16525;BME280;8375;33.594;-117.718;2023-05-02T11:37:12;99934.53;;;11.91;90.70
16525;BME280;8375;33.594;-117.718;2023-05-02T11:39:41;99934.28;;;11.94;90.83
16525;BME280;8375;33.594;-117.718;2023-05-02T11:42:10;99940.06;;;11.98;90.22
16525;BME280;8375;33.594;-117.718;2023-05-02T11:44:59;99928.97;;;11.96;89.50
16525;BME280;8375;33.594;-117.718;2023-05-02T11:47:28;99926.34;;;11.96;89.33
16525;BME280;8375;33.594;-117.718;2023-05-02T11:50:04;99937.84;;;11.93;89.35
16525;BME280;8375;33.594;-117.718;2023-05-02T11:52:37;99927.59;;;11.92;89.35
16525;BME280;8375;33.594;-117.718;2023-05-02T11:55:09;99934.84;;;11.98;89.89
16525;BME280;8375;33.594;-117.718;2023-05-02T11:57:38;99933.31;;;11.95;89.78
16525;BME280;8375;33.594;-117.718;2023-05-02T12:00:10;99936.50;;;11.99;88.63
16525;BME280;8375;33.594;-117.718;2023-05-02T12:02:39;99936.63;;;11.97;88.49
16525;BME280;8375;33.594;-117.718;2023-05-02T12:05:09;99931.81;;;11.93;88.44
16525;BME280;8375;33.594;-117.718;2023-05-02T12:07:39;99934.44;;;11.93;87.67
16525;BME280;8375;33.594;-117.718;2023-05-02T12:10:09;99938.38;;;11.87;88.32
16525;BME280;8375;33.594;-117.718;2023-05-02T12:12:38;99936.88;;;11.84;88.90
16525;BME280;8375;33.594;-117.718;2023-05-02T12:15:10;99939.47;;;11.84;88.56
16525;BME280;8375;33.594;-117.718;2023-05-02T12:17:41;99942.75;;;11.86;88.60
16525;BME280;8375;33.594;-117.718;2023-05-02T12:20:11;99950.69;;;11.85;88.93
16525;BME280;8375;33.594;-117.718;2023-05-02T12:22:41;99944.41;;;11.87;88.67
16525;BME280;8375;33.594;-117.718;2023-05-02T12:25:10;99950.84;;;11.83;88.41
16525;BME280;8375;33.594;-117.718;2023-05-02T12:27:39;99949.44;;;11.79;87.72
16525;BME280;8375;33.594;-117.718;2023-05-02T12:30:24;99950.84;;;11.83;89.24
16525;BME280;8375;33.594;-117.718;2023-05-02T12:32:56;99957.00;;;11.82;88.19
16525;BME280;8375;33.594;-117.718;2023-05-02T12:35:27;99950.25;;;11.80;87.71
16525;BME280;8375;33.594;-117.718;2023-05-02T12:38:07;99950.13;;;11.81;87.00
16525;BME280;8375;33.594;-117.718;2023-05-02T12:40:37;99956.25;;;11.70;86.42
16525;BME280;8375;33.594;-117.718;2023-05-02T12:43:07;99956.13;;;11.72;88.23
16525;BME280;8375;33.594;-117.718;2023-05-02T12:45:37;99960.38;;;11.73;88.26
16525;BME280;8375;33.594;-117.718;2023-05-02T12:48:19;99963.88;;;11.62;87.10
16525;BME280;8375;33.594;-117.718;2023-05-02T12:50:49;99962.38;;;11.59;87.13
16525;BME280;8375;33.594;-117.718;2023-05-02T12:53:37;99970.19;;;11.59;87.53
16525;BME280;8375;33.594;-117.718;2023-05-02T12:56:07;99969.22;;;11.61;88.57
16525;BME280;8375;33.594;-117.718;2023-05-02T12:58:43;99962.94;;;11.63;88.37
16525;BME280;8375;33.594;-117.718;2023-05-02T13:01:13;99972.38;;;11.64;88.16
16525;BME280;8375;33.594;-117.718;2023-05-02T13:03:43;99973.59;;;11.60;88.45
16525;BME280;8375;33.594;-117.718;2023-05-02T13:06:12;99972.50;;;11.63;89.48
16525;BME280;8375;33.594;-117.718;2023-05-02T13:08:40;99976.59;;;11.55;89.24
16525;BME280;8375;33.594;-117.718;2023-05-02T13:11:09;99977.91;;;11.50;88.56